Time;durP1;ratioP1;P1;durP2;ratioP2;P2;SDS_P1;SDS_P2;PMS_P1;PMS_P2;Temp;Humidity;BMP_temperature;BMP_pressure;BME280_temperature;BME280_humidity;BME280_pressure;Samples;Min_cycle;Max_cycle;Signal;HPM_P1;HPM_P2
2023/10/13 00:01:48;;;;;;;24.38;11.73;;;;;;;-148.15;100.00;61821.78;4951776;29;20473;-87
2023/10/13 00:04:14;;;;;;;23.13;12.20;;;;;;;-148.15;100.00;61821.78;4951191;29;20467;-88
2023/10/13 00:06:39;;;;;;;22.50;12.30;;;;;;;-148.15;100.00;61821.78;4951261;28;20086;-88
2023/10/13 00:09:04;;;;;;;21.17;10.87;;;;;;;-148.15;100.00;61821.78;4952246;29;20063;-87
2023/10/13 00:11:30;;;;;;;21.80;12.07;;;;;;;-148.15;100.00;61821.78;4951508;29;20329;-88
2023/10/13 00:13:55;;;;;;;23.27;11.23;;;;;;;-148.15;100.00;61821.78;4951861;28;20862;-87
2023/10/13 00:16:22;;;;;;;20.67;11.40;;;;;;;-148.15;100.00;61821.78;4951472;28;20562;-87
2023/10/13 00:18:50;;;;;;;22.70;11.20;;;;;;;-148.15;100.00;61821.78;4951675;28;20065;-87
2023/10/13 00:21:20;;;;;;;18.83;10.27;;;;;;;-148.15;100.00;61821.78;4950182;29;20038;-87
2023/10/13 00:23:54;;;;;;;22.20;10.73;;;;;;;-148.15;100.00;61821.78;4951948;29;20348;-87
2023/10/13 00:26:29;;;;;;;16.25;10.13;;;;;;;-148.15;100.00;61821.78;4949039;29;20059;-87
2023/10/13 00:29:15;;;;;;;20.73;10.40;;;;;;;-148.15;100.00;61821.78;4952032;29;20078;-88
2023/10/13 00:31:42;;;;;;;18.33;9.40;;;;;;;-148.15;100.00;61821.78;4951989;29;20102;-87
2023/10/13 00:34:28;;;;;;;19.23;10.07;;;;;;;-148.15;100.00;61821.78;4951822;29;20031;-88
2023/10/13 00:39:44;;;;;;;18.63;10.33;;;;;;;-148.15;100.00;61821.78;4932023;29;20367;-87
2023/10/13 00:42:17;;;;;;;19.40;9.45;;;;;;;-148.15;100.00;61821.78;4939404;29;20051;-87
2023/10/13 00:44:48;;;;;;;19.85;9.55;;;;;;;-148.15;100.00;61821.78;4951186;29;20047;-87
2023/10/13 00:47:17;;;;;;;21.35;9.57;;;;;;;-148.15;100.00;61821.78;4950806;28;20043;-87
2023/10/13 00:49:47;;;;;;;21.15;9.60;;;;;;;-148.15;100.00;61821.78;4951974;28;20065;-89
2023/10/13 00:52:15;;;;;;;18.27;9.47;;;;;;;-148.15;100.00;61821.78;4950561;29;20110;-88
2023/10/13 00:54:51;;;;;;;17.40;9.20;;;;;;;-148.15;100.00;61821.78;4936566;28;20291;-91
2023/10/13 00:57:31;;;;;;;19.58;9.43;;;;;;;-148.15;100.00;61821.78;4943722;29;20757;-92
2023/10/13 00:59:57;;;;;;;15.93;9.18;;;;;;;-148.15;100.00;61821.78;4949795;29;20031;-92
2023/10/13 01:05:01;;;;;;;17.95;9.75;;;;;;;-148.15;100.00;61821.78;4955244;29;20527;-91
2023/10/13 01:14:17;;;;;;;15.18;8.52;;;;;;;-148.15;100.00;61821.78;4956019;29;20042;-91
2023/10/13 01:16:46;;;;;;;19.73;9.55;;;;;;;-148.15;100.00;61821.78;4955054;28;20023;-91
2023/10/13 01:19:19;;;;;;;18.42;8.82;;;;;;;-148.15;100.00;61821.78;4955887;28;20098;-91
2023/10/13 01:21:44;;;;;;;18.92;9.02;;;;;;;-148.15;100.00;61821.78;4937367;29;20419;-91
2023/10/13 01:24:13;;;;;;;18.40;8.10;;;;;;;-148.15;100.00;61821.78;4954607;28;20026;-89
2023/10/13 01:26:40;;;;;;;20.10;8.57;;;;;;;-148.15;100.00;61821.78;4958399;28;20064;-90
2023/10/13 01:29:14;;;;;;;19.30;8.55;;;;;;;-148.15;100.00;61821.78;4960604;28;20020;-90
2023/10/13 01:31:46;;;;;;;13.88;7.63;;;;;;;-148.15;100.00;61821.78;4955408;29;20368;-90
2023/10/13 01:34:19;;;;;;;21.00;8.35;;;;;;;-148.15;100.00;61821.78;4957919;29;20027;-89
2023/10/13 01:36:51;;;;;;;13.27;8.07;;;;;;;-148.15;100.00;61821.78;4956744;28;20035;-92
2023/10/13 01:39:30;;;;;;;21.70;8.57;;;;;;;-148.15;100.00;61821.78;4940601;29;20297;-92
2023/10/13 01:42:06;;;;;;;20.00;8.68;;;;;;;-148.15;100.00;61821.78;4940509;29;20035;-92
2023/10/13 01:45:03;;;;;;;;;;;;;;;;;;;;;
2023/10/13 01:47:27;;;;;;;19.27;8.52;;;;;;;-148.15;100.00;61821.78;4954877;28;20039;-94
2023/10/13 01:50:12;;;;;;;18.45;8.65;;;;;;;-148.15;100.00;61821.78;4939531;29;20376;-94
2023/10/13 01:52:38;;;;;;;16.90;8.65;;;;;;;-148.15;100.00;61821.78;4941864;28;20061;-94
2023/10/13 01:55:06;;;;;;;17.63;8.67;;;;;;;-148.15;100.00;61821.78;4937844;29;20051;-93
2023/10/13 01:57:51;;;;;;;15.98;7.95;;;;;;;-148.15;100.00;61821.78;4955030;28;20023;-94
2023/10/13 02:00:20;;;;;;;14.45;7.88;;;;;;;-148.15;100.00;61821.78;4938017;29;20035;-96
2023/10/13 02:02:49;;;;;;;21.77;8.82;;;;;;;-148.15;100.00;61821.78;4955469;28;20039;-94
2023/10/13 02:05:16;;;;;;;18.83;8.80;;;;;;;-148.15;100.00;61821.78;4933210;29;20032;-95
2023/10/13 02:07:47;;;;;;;14.63;8.23;;;;;;;-148.15;100.00;61821.78;4954783;28;20706;-94
2023/10/13 02:10:33;;;;;;;;;;;;;;;;;;;;;
2023/10/13 02:13:13;;;;;;;;;;;;;;;;;;;;;
2023/10/13 02:15:44;;;;;;;18.77;9.20;;;;;;;-148.15;100.00;61821.78;4954983;28;20146;-94
2023/10/13 02:18:20;;;;;;;19.08;10.02;;;;;;;-148.15;100.00;61821.78;4965738;28;20054;-94
2023/10/13 02:20:54;;;;;;;20.13;10.17;;;;;;;-148.15;100.00;61821.78;4943086;29;20419;-95
2023/10/13 02:23:30;;;;;;;22.17;10.73;;;;;;;-148.15;100.00;61821.78;4935662;29;20305;-95
2023/10/13 02:26:30;;;;;;;;;;;;;;;;;;;;;
2023/10/13 02:32:12;;;;;;;23.17;11.70;;;;;;;-148.15;100.00;61821.78;4954413;28;20480;-95
2023/10/13 02:34:43;;;;;;;30.40;13.45;;;;;;;-148.15;100.00;61821.78;4945934;29;20130;-96
2023/10/13 02:40:24;;;;;;;31.57;14.47;;;;;;;-148.15;100.00;61821.78;4932703;28;20299;-93
2023/10/13 02:42:55;;;;;;;34.65;15.98;;;;;;;-148.15;100.00;61821.78;4935062;29;20046;-93
2023/10/13 02:45:42;;;;;;;;;;;;;;;;;;;;;
2023/10/13 02:52:05;;;;;;;40.15;17.80;;;;;;;-148.15;100.00;61821.78;4901782;28;20461;-93
2023/10/13 03:02:17;;;;;;;42.92;18.67;;;;;;;-148.15;100.00;61821.78;4923407;28;20043;-94
2023/10/13 03:05:27;;;;;;;;;;;;;;;;;;;;;
2023/10/13 03:08:21;;;;;;;;;;;;;;;;;;;;;
2023/10/13 03:11:20;;;;;;;47.10;20.83;;;;;;;-148.15;100.00;61821.78;4932987;29;20058;-93
2023/10/13 03:14:33;;;;;;;41.55;19.55;;;;;;;-148.15;100.00;61821.78;4934707;29;20113;-93
2023/10/13 03:17:35;;;;;;;49.07;20.93;;;;;;;-148.15;100.00;61821.78;4952932;28;20035;-93
2023/10/13 03:27:29;;;;;;;;;;;;;;;;;;;;;
2023/10/13 03:51:40;;;;;;;59.40;24.45;;;;;;;-148.15;100.00;61821.78;4780407;29;20078;-94
2023/10/13 04:30:49;;;;;;;;;;;;;;;;;;;;;
2023/10/13 04:37:48;;;;;;;49.38;21.38;;;;;;;-148.15;100.00;61821.78;4691786;30;20048;-96
2023/10/13 04:54:54;;;;;;;41.00;17.85;;;;;;;-148.15;100.00;61821.78;4630545;31;20113;-96
2023/10/13 06:31:07;;;;;;;29.27;10.93;;;;;;;-148.15;100.00;61821.78;4976206;28;20041;-91
2023/10/13 06:33:33;;;;;;;29.20;10.98;;;;;;;-148.15;100.00;61821.78;4954643;28;20058;-90
2023/10/13 06:36:03;;;;;;;31.27;11.20;;;;;;;-148.15;100.00;61821.78;4967441;28;20030;-89
2023/10/13 06:38:36;;;;;;;25.53;10.40;;;;;;;-148.15;100.00;61821.78;4971962;28;20497;-88
2023/10/13 06:41:05;;;;;;;21.67;10.50;;;;;;;-148.15;100.00;61821.78;4972265;28;20030;-88
2023/10/13 06:43:39;;;;;;;28.15;10.52;;;;;;;-148.15;100.00;61821.78;4965211;28;20019;-89
2023/10/13 06:46:14;;;;;;;21.67;10.18;;;;;;;-148.15;100.00;61821.78;4971210;28;20409;-89
2023/10/13 06:48:40;;;;;;;24.02;10.07;;;;;;;-148.15;100.00;61821.78;4976373;28;20145;-89
2023/10/13 06:51:18;;;;;;;28.55;10.30;;;;;;;-148.15;100.00;61821.78;4971435;28;20042;-89
2023/10/13 06:53:47;;;;;;;24.70;10.20;;;;;;;-148.15;100.00;61821.78;4978598;28;20041;-88
2023/10/13 06:56:39;;;;;;;28.17;11.05;;;;;;;-148.15;100.00;61821.78;4969105;28;20532;-88
2023/10/13 06:59:06;;;;;;;26.77;11.00;;;;;;;-148.15;100.00;61821.78;4978423;28;20064;-88
2023/10/13 07:01:38;;;;;;;24.45;10.65;;;;;;;-148.15;100.00;61821.78;4955734;28;20053;-88
2023/10/13 07:04:14;;;;;;;23.48;10.85;;;;;;;-148.15;100.00;61821.78;4948209;28;20100;-89
2023/10/13 07:06:50;;;;;;;29.67;11.23;;;;;;;-148.15;100.00;61821.78;4972013;28;20045;-93
2023/10/13 07:12:02;;;;;;;23.75;10.70;;;;;;;-148.15;100.00;61821.78;4979334;28;20035;-89
2023/10/13 07:14:28;;;;;;;33.08;11.13;;;;;;;-148.15;100.00;61821.78;4967874;28;20026;-91
2023/10/13 07:17:25;;;;;;;28.70;10.30;;;;;;;-148.15;100.00;61821.78;4974038;28;20553;-90
2023/10/13 07:20:06;;;;;;;23.95;9.73;;;;;;;-148.15;100.00;61821.78;4972706;28;20062;-93
2023/10/13 07:23:02;;;;;;;24.92;10.15;;;;;;;-148.15;100.00;61821.78;4967821;28;20037;-90
2023/10/13 07:25:32;;;;;;;28.40;9.55;;;;;;;-148.15;100.00;61821.78;4972550;28;20035;-92
2023/10/13 07:28:10;;;;;;;29.88;10.45;;;;;;;-148.15;100.00;61821.78;4973871;28;20110;-90
2023/10/13 07:33:48;;;;;;;19.63;10.18;;;;;;;-148.15;100.00;61821.78;4960418;28;20611;-89
2023/10/13 07:36:33;;;;;;;22.65;9.65;;;;;;;-148.15;100.00;61821.78;4971727;28;20043;-92
2023/10/13 07:42:21;;;;;;;19.08;8.98;;;;;;;-148.15;100.00;61821.78;4894171;29;20052;-92
2023/10/13 07:44:47;;;;;;;23.00;9.00;;;;;;;-148.15;100.00;61821.78;4955004;28;20169;-91
2023/10/13 07:47:14;;;;;;;22.47;9.07;;;;;;;-148.15;100.00;61821.78;4972628;28;20344;-92
2023/10/13 07:49:40;;;;;;;20.35;8.13;;;;;;;-148.15;100.00;61821.78;4978831;28;20023;-91
2023/10/13 07:55:21;;;;;;;19.53;7.97;;;;;;;-148.15;100.00;61821.78;4977441;28;20301;-92
2023/10/13 07:57:53;;;;;;;33.35;7.10;;;;;;;-148.15;100.00;61821.78;4974055;28;20034;-91
2023/10/13 08:00:46;;;;;;;20.98;7.32;;;;;;;-148.15;100.00;61821.78;4972556;28;20034;-92
2023/10/13 08:05:58;;;;;;;21.60;7.28;;;;;;;-148.15;100.00;61821.78;4983587;28;20031;-91
2023/10/13 08:08:35;;;;;;;19.97;7.67;;;;;;;-148.15;100.00;61821.78;4964899;28;20388;-91
2023/10/13 08:11:30;;;;;;;21.10;7.63;;;;;;;-148.15;100.00;61821.78;4959063;28;20307;-92
2023/10/13 08:19:49;;;;;;;18.52;6.63;;;;;;;-148.15;100.00;61821.78;4982522;23;20507;-92
2023/10/13 08:31:29;;;;;;;15.37;6.40;;;;;;;-148.15;100.00;61821.78;4956188;28;20107;-93
2023/10/13 08:42:04;;;;;;;;;;;;;;;;;;;;;
2023/10/13 09:10:13;;;;;;;19.67;6.37;;;;;;;-148.15;100.00;61821.78;4897791;29;20307;-91
2023/10/13 09:13:00;;;;;;;18.80;6.80;;;;;;;-148.15;100.00;61821.78;4951577;29;20402;-91
2023/10/13 09:18:46;;;;;;;17.77;5.95;;;;;;;-148.15;100.00;61821.78;4948796;29;20585;-91
2023/10/13 09:24:37;;;;;;;;;;;;;;;;;;;;;
2023/10/13 09:33:15;;;;;;;17.13;6.10;;;;;;;-148.15;100.00;61821.78;4941967;29;20027;-92
2023/10/13 09:35:51;;;;;;;13.95;6.32;;;;;;;-148.15;100.00;61821.78;4936110;29;20082;-89
2023/10/13 09:38:17;;;;;;;17.77;6.40;;;;;;;-148.15;100.00;61821.78;4924694;29;20028;-93
2023/10/13 09:40:57;;;;;;;17.70;5.63;;;;;;;-148.15;100.00;61821.78;4952483;29;20043;-91
2023/10/13 09:43:27;;;;;;;15.33;5.80;;;;;;;-148.15;100.00;61821.78;4946458;29;20288;-92
2023/10/13 09:46:07;;;;;;;13.48;5.80;;;;;;;-148.15;100.00;61821.78;4953358;29;20122;-91
2023/10/13 09:52:37;;;;;;;14.68;5.93;;;;;;;-148.15;100.00;61821.78;4963279;29;20041;-91
2023/10/13 09:55:31;;;;;;;23.92;6.15;;;;;;;-148.15;100.00;61821.78;4942262;29;20031;-90
2023/10/13 09:58:11;;;;;;;11.17;5.50;;;;;;;-148.15;100.00;61821.78;4947841;29;20034;-92
2023/10/13 10:01:20;;;;;;;14.38;5.80;;;;;;;-148.15;100.00;61821.78;4947129;29;20151;-91
2023/10/13 10:08:33;;;;;;;18.08;6.03;;;;;;;-148.15;100.00;61821.78;4946439;28;20074;-90
2023/10/13 10:11:26;;;;;;;17.27;5.85;;;;;;;-148.15;100.00;61821.78;4914235;29;20044;-90
2023/10/13 10:14:37;;;;;;;18.10;6.07;;;;;;;-148.15;100.00;61821.78;4944404;29;20055;-91
2023/10/13 10:17:22;;;;;;;20.87;6.40;;;;;;;-148.15;100.00;61821.78;4948370;29;20306;-90
2023/10/13 10:19:47;;;;;;;16.38;5.95;;;;;;;-148.15;100.00;61821.78;4956813;29;20043;-93
2023/10/13 10:22:20;;;;;;;14.73;5.47;;;;;;;-148.15;100.00;61821.78;4955371;28;20023;-93
2023/10/13 10:25:25;;;;;;;17.25;6.00;;;;;;;-148.15;100.00;61821.78;4926470;29;20055;-92
2023/10/13 10:27:58;;;;;;;19.45;5.70;;;;;;;-148.15;100.00;61821.78;4938509;29;20464;-94
2023/10/13 10:30:24;;;;;;;15.65;5.50;;;;;;;-148.15;100.00;61821.78;4938077;29;20384;-92
2023/10/13 10:33:01;;;;;;;17.63;5.97;;;;;;;-148.15;100.00;61821.78;4934029;29;20039;-91
2023/10/13 10:35:33;;;;;;;18.67;5.70;;;;;;;-148.15;100.00;61821.78;4954127;28;20376;-91
2023/10/13 10:40:57;;;;;;;20.77;6.00;;;;;;;-148.15;100.00;61821.78;4943877;29;20051;-93
2023/10/13 10:43:47;;;;;;;19.77;6.28;;;;;;;-148.15;100.00;61821.78;4960815;28;20083;-92
2023/10/13 10:46:40;;;;;;;14.40;5.75;;;;;;;-148.15;100.00;61821.78;4946799;29;20052;-94
2023/10/13 10:49:05;;;;;;;13.27;5.15;;;;;;;-148.15;100.00;61821.78;4947959;29;20035;-91
2023/10/13 10:51:33;;;;;;;12.10;6.00;;;;;;;-148.15;100.00;61821.78;4938065;29;20074;-90
2023/10/13 10:54:31;;;;;;;24.23;6.43;;;;;;;-148.15;100.00;61821.78;4939831;29;20098;-90
2023/10/13 10:56:59;;;;;;;15.75;6.70;;;;;;;-148.15;100.00;61821.78;4936189;29;20138;-90
2023/10/13 10:59:27;;;;;;;13.77;5.90;;;;;;;-148.15;100.00;61821.78;4916892;29;20075;-92
2023/10/13 11:01:58;;;;;;;18.13;6.38;;;;;;;-148.15;100.00;61821.78;4939765;29;20036;-94
2023/10/13 11:04:24;;;;;;;14.80;6.05;;;;;;;-148.15;100.00;61821.78;4929898;29;20083;-91
2023/10/13 11:07:20;;;;;;;15.97;6.20;;;;;;;-148.15;100.00;61821.78;4945047;29;20035;-90
2023/10/13 11:09:45;;;;;;;23.50;6.57;;;;;;;-148.15;100.00;61821.78;4918949;29;20795;-91
2023/10/13 11:12:26;;;;;;;20.25;6.40;;;;;;;-148.15;100.00;61821.78;4937825;29;20055;-91
2023/10/13 11:15:36;;;;;;;21.73;6.27;;;;;;;-148.15;100.00;61821.78;4942879;29;20052;-92
2023/10/13 11:21:35;;;;;;;15.93;5.85;;;;;;;-148.15;100.00;61821.78;4891627;29;20036;-93
2023/10/13 11:24:22;;;;;;;12.73;6.07;;;;;;;-148.15;100.00;61821.78;4863584;29;20128;-90
2023/10/13 11:29:42;;;;;;;10.88;5.70;;;;;;;-148.15;100.00;61821.78;4907644;23;20056;-91
2023/10/13 11:32:20;;;;;;;18.43;5.63;;;;;;;-148.15;100.00;61821.78;4921332;29;20028;-89
2023/10/13 11:35:48;;;;;;;17.42;6.05;;;;;;;-148.15;100.00;61821.78;4973387;23;20047;-90
2023/10/13 11:41:35;;;;;;;16.98;5.88;;;;;;;-148.15;100.00;61821.78;4941276;29;20047;-91
2023/10/13 11:46:55;;;;;;;16.60;6.33;;;;;;;-148.15;100.00;61821.78;4989628;23;20113;-94
2023/10/13 11:58:05;;;;;;;;;;;;;;;;;;;;;
2023/10/13 12:01:20;;;;;;;16.70;6.00;;;;;;;-148.15;100.00;61821.78;4976111;28;20072;-95
2023/10/13 12:12:26;;;;;;;20.40;5.88;;;;;;;-148.15;100.00;61821.78;4934687;29;20055;-89
2023/10/13 12:14:55;;;;;;;20.58;6.38;;;;;;;-148.15;100.00;61821.78;4954239;29;20062;-92
2023/10/13 12:17:31;;;;;;;14.50;6.45;;;;;;;-148.15;100.00;61821.78;4909501;29;20035;-92
2023/10/13 12:20:18;;;;;;;14.87;5.43;;;;;;;-148.15;100.00;61821.78;4933526;29;20054;-91
2023/10/13 12:22:54;;;;;;;16.63;5.63;;;;;;;-148.15;100.00;61821.78;4953685;29;20279;-93
2023/10/13 12:29:06;;;;;;;19.83;5.38;;;;;;;-148.15;100.00;61821.78;4888983;29;20032;-90
2023/10/13 12:31:32;;;;;;;20.67;6.07;;;;;;;-148.15;100.00;61821.78;4884254;29;20041;-92
2023/10/13 12:53:49;;;;;;;18.43;5.43;;;;;;;-148.15;100.00;61821.78;4947746;29;20294;-94
2023/10/13 12:56:15;;;;;;;20.10;6.40;;;;;;;-148.15;100.00;61821.78;4927631;29;20040;-96
2023/10/13 12:58:41;;;;;;;18.63;5.43;;;;;;;-148.15;100.00;61821.78;4967559;28;20032;-92
2023/10/13 13:01:09;;;;;;;19.98;5.47;;;;;;;-148.15;100.00;61821.78;4969434;29;20035;-93
2023/10/13 13:03:34;;;;;;;16.60;5.68;;;;;;;-148.15;100.00;61821.78;4948931;29;20047;-91
2023/10/13 13:06:07;;;;;;;17.10;5.30;;;;;;;-148.15;100.00;61821.78;4956702;29;20045;-91
2023/10/13 13:08:35;;;;;;;17.60;5.07;;;;;;;-148.15;100.00;61821.78;4950811;29;20024;-91
2023/10/13 13:11:02;;;;;;;21.73;5.28;;;;;;;-148.15;100.00;61821.78;4945885;29;20035;-92
2023/10/13 13:13:27;;;;;;;23.43;5.20;;;;;;;-148.15;100.00;61821.78;4951194;29;20028;-94
2023/10/13 13:16:13;;;;;;;17.37;4.67;;;;;;;-148.15;100.00;61821.78;4952706;29;20350;-93
2023/10/13 13:18:39;;;;;;;14.73;5.10;;;;;;;-148.15;100.00;61821.78;4948654;29;20038;-95
2023/10/13 13:21:06;;;;;;;21.03;5.13;;;;;;;-148.15;100.00;61821.78;4954712;29;20291;-93
2023/10/13 13:23:34;;;;;;;17.83;4.78;;;;;;;-148.15;100.00;61821.78;4952734;29;20023;-93
2023/10/13 13:26:15;;;;;;;14.40;4.95;;;;;;;-148.15;100.00;61821.78;4931181;29;20040;-94
2023/10/13 13:28:41;;;;;;;18.83;5.05;;;;;;;-148.15;100.00;61821.78;4942405;29;20084;-95
2023/10/13 13:31:08;;;;;;;21.77;5.65;;;;;;;-148.15;100.00;61821.78;4940110;29;20036;-94
2023/10/13 13:33:38;;;;;;;18.40;4.63;;;;;;;-148.15;100.00;61821.78;4945750;29;20042;-89
2023/10/13 13:36:07;;;;;;;13.70;4.23;;;;;;;-148.15;100.00;61821.78;4929811;29;20518;-89
2023/10/13 13:38:33;;;;;;;22.45;5.05;;;;;;;-148.15;100.00;61821.78;4960496;29;20487;-87
2023/10/13 13:41:20;;;;;;;19.73;5.00;;;;;;;-148.15;100.00;61821.78;4932501;29;20068;-89
2023/10/13 13:46:16;;;;;;;17.17;5.07;;;;;;;-148.15;100.00;61821.78;4924486;29;20642;-91
2023/10/13 13:48:42;;;;;;;13.32;4.95;;;;;;;-148.15;100.00;61821.78;4943285;29;20025;-93
2023/10/13 13:51:19;;;;;;;15.98;4.90;;;;;;;-148.15;100.00;61821.78;4946140;29;20054;-93
2023/10/13 13:53:50;;;;;;;17.52;5.13;;;;;;;-148.15;100.00;61821.78;4925178;29;20702;-92
2023/10/13 13:56:18;;;;;;;17.70;4.93;;;;;;;-148.15;100.00;61821.78;4916088;29;20051;-90
2023/10/13 13:58:47;;;;;;;16.17;4.77;;;;;;;-148.15;100.00;61821.78;4933100;29;20040;-89
2023/10/13 14:01:25;;;;;;;20.73;5.50;;;;;;;-148.15;100.00;61821.78;4948404;29;20092;-95
2023/10/13 14:03:51;;;;;;;14.02;4.40;;;;;;;-148.15;100.00;61821.78;4931729;29;20039;-95
2023/10/13 14:06:28;;;;;;;16.67;4.75;;;;;;;-148.15;100.00;61821.78;4942586;29;20032;-92
2023/10/13 14:08:57;;;;;;;17.73;5.47;;;;;;;-148.15;100.00;61821.78;4915644;29;20056;-93
2023/10/13 14:14:37;;;;;;;15.02;4.68;;;;;;;-148.15;100.00;61821.78;4931768;29;20036;-92
2023/10/13 14:17:07;;;;;;;17.48;4.75;;;;;;;-148.15;100.00;61821.78;4931073;29;20039;-92
2023/10/13 14:19:33;;;;;;;12.07;4.65;;;;;;;-148.15;100.00;61821.78;4942072;29;20091;-92
2023/10/13 14:22:06;;;;;;;13.95;5.22;;;;;;;-148.15;100.00;61821.78;4943855;29;20024;-93
2023/10/13 14:24:35;;;;;;;17.10;4.83;;;;;;;-148.15;100.00;61821.78;4931039;29;20028;-90
2023/10/13 14:27:10;;;;;;;15.70;4.97;;;;;;;-148.15;100.00;61821.78;4948690;29;20291;-94
2023/10/13 14:29:40;;;;;;;16.05;5.30;;;;;;;-148.15;100.00;61821.78;4949598;29;20414;-86
2023/10/13 14:32:12;;;;;;;12.68;4.38;;;;;;;-148.15;100.00;61821.78;4949264;29;20027;-92
2023/10/13 14:34:43;;;;;;;14.95;5.07;;;;;;;-148.15;100.00;61821.78;4944565;29;20024;-91
2023/10/13 14:37:12;;;;;;;15.75;4.82;;;;;;;-148.15;100.00;61821.78;4932957;29;20019;-95
2023/10/13 14:39:40;;;;;;;18.43;4.70;;;;;;;-148.15;100.00;61821.78;4969257;28;20020;-92
2023/10/13 14:42:08;;;;;;;18.20;5.47;;;;;;;-148.15;100.00;61821.78;4922618;29;20110;-94
2023/10/13 14:44:34;;;;;;;18.05;5.10;;;;;;;-148.15;100.00;61821.78;4957344;29;20027;-91
2023/10/13 14:47:01;;;;;;;16.15;4.93;;;;;;;-148.15;100.00;61821.78;4951574;29;20055;-95
2023/10/13 14:49:28;;;;;;;16.85;4.90;;;;;;;-148.15;100.00;61821.78;4949668;29;20104;-93
2023/10/13 14:51:55;;;;;;;15.40;4.90;;;;;;;-148.15;100.00;61821.78;4919554;29;20040;-92
2023/10/13 14:54:32;;;;;;;15.87;4.97;;;;;;;-148.15;100.00;61821.78;4941421;29;20283;-93
2023/10/13 14:57:03;;;;;;;14.38;5.20;;;;;;;-148.15;100.00;61821.78;4935422;29;20032;-93
2023/10/13 14:59:33;;;;;;;18.80;5.03;;;;;;;-148.15;100.00;61821.78;4950341;29;20032;-93
2023/10/13 15:02:01;;;;;;;14.25;4.63;;;;;;;-148.15;100.00;61821.78;4948584;29;20038;-92
2023/10/13 15:04:28;;;;;;;18.52;5.05;;;;;;;-148.15;100.00;61821.78;4971851;29;20047;-92
2023/10/13 15:06:58;;;;;;;14.67;5.10;;;;;;;-148.15;100.00;61821.78;4970073;28;20023;-91
2023/10/13 15:09:23;;;;;;;16.67;4.95;;;;;;;-148.15;100.00;61821.78;4943617;28;20042;-94
2023/10/13 15:11:53;;;;;;;20.23;5.00;;;;;;;-148.15;100.00;61821.78;4932592;29;20036;-93
2023/10/13 15:14:20;;;;;;;17.30;5.03;;;;;;;-148.15;100.00;61821.78;4932677;29;20340;-93
2023/10/13 15:16:46;;;;;;;15.00;5.03;;;;;;;-148.15;100.00;61821.78;4936526;29;20682;-90
2023/10/13 15:19:12;;;;;;;13.35;4.60;;;;;;;-148.15;100.00;61821.78;4932657;29;20027;-92
2023/10/13 15:21:41;;;;;;;17.27;4.77;;;;;;;-148.15;100.00;61821.78;4969390;28;20478;-92
2023/10/13 15:26:47;;;;;;;13.70;5.07;;;;;;;-148.15;100.00;61821.78;4683387;23;20055;-88
2023/10/13 15:29:18;;;;;;;16.27;5.20;;;;;;;-148.15;100.00;61821.78;4964001;29;20034;-92
2023/10/13 15:34:26;;;;;;;15.20;6.47;;;;;;;-148.15;100.00;61821.78;4959663;28;20211;-92
2023/10/13 15:37:20;;;;;;;20.23;6.80;;;;;;;-148.15;100.00;61821.78;4934135;29;20028;-92
2023/10/13 15:39:45;;;;;;;14.77;5.50;;;;;;;-148.15;100.00;61821.78;4946734;29;20307;-91
2023/10/13 15:42:14;;;;;;;13.50;5.43;;;;;;;-148.15;100.00;61821.78;4925922;29;20091;-90
2023/10/13 15:44:43;;;;;;;11.00;5.75;;;;;;;-148.15;100.00;61821.78;4937792;29;20036;-90
2023/10/13 15:47:12;;;;;;;15.70;5.07;;;;;;;-148.15;100.00;61821.78;4944375;29;20079;-89
2023/10/13 15:49:37;;;;;;;13.10;5.27;;;;;;;-148.15;100.00;61821.78;4924167;29;20292;-89
2023/10/13 15:52:03;;;;;;;13.75;5.40;;;;;;;-148.15;100.00;61821.78;4941809;29;20171;-92
2023/10/13 15:54:29;;;;;;;14.32;5.13;;;;;;;-148.15;100.00;61821.78;4942185;29;20538;-86
2023/10/13 15:56:54;;;;;;;14.27;5.20;;;;;;;-148.15;100.00;61821.78;4947974;29;20040;-88
2023/10/13 15:59:19;;;;;;;16.30;5.10;;;;;;;-148.15;100.00;61821.78;4945903;29;20404;-88
2023/10/13 16:01:46;;;;;;;13.77;5.00;;;;;;;-148.15;100.00;61821.78;4942461;29;20042;-90
2023/10/13 16:04:13;;;;;;;19.65;5.53;;;;;;;-148.15;100.00;61821.78;4931752;29;20063;-91
2023/10/13 16:06:46;;;;;;;18.45;5.85;;;;;;;-148.15;100.00;61821.78;4940559;29;20471;-95
2023/10/13 16:09:25;;;;;;;13.48;6.18;;;;;;;-148.15;100.00;61821.78;4938176;29;20027;-95
2023/10/13 16:11:51;;;;;;;18.20;5.47;;;;;;;-148.15;100.00;61821.78;4920453;29;20486;-94
2023/10/13 16:14:20;;;;;;;14.98;5.50;;;;;;;-148.15;100.00;61821.78;4937257;29;20056;-95
2023/10/13 16:16:52;;;;;;;13.73;5.63;;;;;;;-148.15;100.00;61821.78;4920114;29;20028;-93
2023/10/13 16:19:25;;;;;;;13.60;5.50;;;;;;;-148.15;100.00;61821.78;4916217;29;20028;-94
2023/10/13 16:21:52;;;;;;;12.95;5.78;;;;;;;-148.15;100.00;61821.78;4933667;29;20024;-94
2023/10/13 16:24:18;;;;;;;11.47;5.37;;;;;;;-148.15;100.00;61821.78;4918889;29;20028;-94
2023/10/13 16:26:52;;;;;;;14.77;5.65;;;;;;;-148.15;100.00;61821.78;4934705;29;20020;-94
2023/10/13 16:29:18;;;;;;;14.38;5.63;;;;;;;-148.15;100.00;61821.78;4936646;29;20399;-92
2023/10/13 16:31:45;;;;;;;14.88;4.95;;;;;;;-148.15;100.00;61821.78;4932613;29;20036;-89
2023/10/13 16:34:17;;;;;;;12.48;4.93;;;;;;;-148.15;100.00;61821.78;4939091;29;20042;-95
2023/10/13 16:36:47;;;;;;;15.37;4.67;;;;;;;-148.15;100.00;61821.78;4937451;29;20921;-90
2023/10/13 16:39:22;;;;;;;21.33;6.13;;;;;;;-148.15;100.00;61821.78;4944924;29;20291;-93
2023/10/13 16:41:50;;;;;;;12.98;5.30;;;;;;;-148.15;100.00;61821.78;4943287;29;20443;-93
2023/10/13 16:44:15;;;;;;;11.18;5.88;;;;;;;-148.15;100.00;61821.78;4938675;29;20483;-93
2023/10/13 16:46:41;;;;;;;11.73;5.40;;;;;;;-148.15;100.00;61821.78;4912854;29;20023;-94
2023/10/13 16:49:07;;;;;;;11.45;5.35;;;;;;;-148.15;100.00;61821.78;4941444;29;20035;-93
2023/10/13 16:51:33;;;;;;;11.48;5.53;;;;;;;-148.15;100.00;61821.78;4937879;29;20107;-90
2023/10/13 16:53:58;;;;;;;10.97;5.10;;;;;;;-148.15;100.00;61821.78;4936699;29;20035;-90
2023/10/13 16:56:24;;;;;;;16.60;5.97;;;;;;;-148.15;100.00;61821.78;4932736;29;20482;-90
2023/10/13 16:58:50;;;;;;;11.40;5.47;;;;;;;-148.15;100.00;61821.78;4933649;29;20050;-91
2023/10/13 17:01:17;;;;;;;14.95;6.10;;;;;;;-148.15;100.00;61821.78;4935120;29;20456;-87
2023/10/13 17:03:44;;;;;;;12.87;5.43;;;;;;;-148.15;100.00;61821.78;4932050;29;20379;-87
2023/10/13 17:06:11;;;;;;;12.57;6.03;;;;;;;-148.15;100.00;61821.78;4935266;29;20026;-94
2023/10/13 17:08:36;;;;;;;13.48;6.68;;;;;;;-148.15;100.00;61821.78;4938477;29;20066;-91
2023/10/13 17:11:13;;;;;;;14.53;6.27;;;;;;;-148.15;100.00;61821.78;4937278;29;20194;-90
2023/10/13 17:13:41;;;;;;;18.88;7.15;;;;;;;-148.15;100.00;61821.78;4938935;29;20447;-90
2023/10/13 17:16:20;;;;;;;12.00;6.72;;;;;;;-148.15;100.00;61821.78;4951419;29;20011;-92
2023/10/13 17:18:47;;;;;;;19.85;6.97;;;;;;;-148.15;100.00;61821.78;4947205;29;20027;-92
2023/10/13 17:21:31;;;;;;;16.48;7.13;;;;;;;-148.15;100.00;61821.78;4945172;28;20035;-90
2023/10/13 17:23:57;;;;;;;13.80;6.57;;;;;;;-148.15;100.00;61821.78;4943243;29;20024;-92
2023/10/13 17:26:26;;;;;;;19.70;7.40;;;;;;;-148.15;100.00;61821.78;4935682;29;20023;-90
2023/10/13 17:28:55;;;;;;;15.20;7.22;;;;;;;-148.15;100.00;61821.78;4934241;29;20055;-89
2023/10/13 17:31:20;;;;;;;15.93;7.57;;;;;;;-148.15;100.00;61821.78;4934558;29;20043;-88
2023/10/13 17:33:48;;;;;;;14.57;8.03;;;;;;;-148.15;100.00;61821.78;4933396;29;20024;-88
2023/10/13 17:36:14;;;;;;;16.98;7.72;;;;;;;-148.15;100.00;61821.78;4932419;29;20472;-89
2023/10/13 17:38:40;;;;;;;19.20;7.63;;;;;;;-148.15;100.00;61821.78;4932720;29;20028;-89
2023/10/13 17:41:12;;;;;;;13.70;7.15;;;;;;;-148.15;100.00;61821.78;4933877;29;20074;-92
2023/10/13 17:43:38;;;;;;;18.42;7.22;;;;;;;-148.15;100.00;61821.78;4935564;29;20469;-88
2023/10/13 17:46:07;;;;;;;12.87;7.87;;;;;;;-148.15;100.00;61821.78;4928955;29;20027;-89